Startpagina
METAR-TAF:

METAR-TAF

Vliegvelden :

Florennes, België

Vliegbasis Florennes

breedte: 50-14N, lengte: 004-39E, hoogte: 279 m

Actueel weer

Dit bericht is 20 minuten geleden gemaakt, om 18:55 UTC
Wind 6 kt uit het westen
Temperatuur 11°C
Vochtigheid 71%
Druk 1018 hPa
Zicht 10 km of meer
Gebroken wolken op 25000 ft

METAR: EBFS 231855Z 26006KT 9999 BKN250 11/06 Q1018 BLU BLU

Tijdstip: 21:15 (19:15 UTC)

Verwachting

Dit bericht is 3 uur en het 34 minuten geleden gemaakt, om 15:41 UTC
Verwachting geldig van 23 om 19 UTC tot 24 om 07 UTC
Wind 12 kt uit het westen
Zicht 10 km of meer
Gebroken wolken op 20000 ft

TAF: EBFS 231541Z 2319/2407 27012KT 9999 NSW BKN200

Waarnemingen en weersverwachtingen van meer dan 4000 vliegvelden (METAR en TAF).

De beschikbare stations zijn de gele en rode punten op de kaart.

Ga met uw muis naar het station om de naam te zien.

Klik dan om waarnemingen en weersverwachtingen te zien.

kaart wijzigen: klik op de groene knoppen met een zwart kruis om in te zoomen, op de groene knop met een streepje om uit te zoomen of op de groene pijlen voor aangrenzende kaarten.


METAR-TAF: